Time;durP1;ratioP1;P1;durP2;ratioP2;P2;SDS_P1;SDS_P2;PMS_P1;PMS_P2;Temp;Humidity;BMP_temperature;BMP_pressure;BME280_temperature;BME280_humidity;BME280_pressure;Samples;Min_cycle;Max_cycle;Signal;HPM_P1;HPM_P2
2022/04/04 00:01:25;;;;;;;3.85;0.80;;;3.70;99.90;;;;;;5035122;28;20033;-74
2022/04/04 00:03:51;;;;;;;3.17;1.17;;;3.80;99.90;;;;;;5053151;28;20533;-75
2022/04/04 00:06:17;;;;;;;5.60;1.30;;;3.70;99.90;;;;;;5053518;28;20053;-73
2022/04/04 00:08:42;;;;;;;8.63;2.15;;;3.70;99.90;;;;;;5053448;28;20021;-73
2022/04/04 00:11:08;;;;;;;3.55;0.85;;;3.70;99.90;;;;;;5053594;28;20344;-74
2022/04/04 00:13:34;;;;;;;4.82;1.73;;;3.70;99.90;;;;;;5053402;28;20486;-75
2022/04/04 00:15:59;;;;;;;7.82;2.13;;;3.80;99.90;;;;;;5035369;28;20474;-75
2022/04/04 00:18:25;;;;;;;5.72;1.70;;;3.70;99.90;;;;;;5052699;28;20025;-74
2022/04/04 00:20:51;;;;;;;9.25;2.15;;;3.80;99.90;;;;;;5052881;28;20032;-74
2022/04/04 00:23:17;;;;;;;6.18;1.90;;;3.70;99.90;;;;;;5053484;28;20079;-74
2022/04/04 00:25:45;;;;;;;5.90;1.83;;;5.40;99.90;;;;;;5053457;28;20029;-74
2022/04/04 00:28:11;;;;;;;8.60;2.35;;;3.80;99.90;;;;;;5052775;28;20029;-75
2022/04/04 00:30:37;;;;;;;7.50;2.13;;;3.70;99.90;;;;;;5052857;28;20025;-73
2022/04/04 00:33:04;;;;;;;6.60;2.05;;;3.70;99.90;;;;;;5035336;28;20028;-75
2022/04/04 00:35:30;;;;;;;10.57;2.17;;;3.70;99.90;;;;;;5056586;28;20017;-74
2022/04/04 00:37:58;;;;;;;6.35;2.63;;;3.70;99.90;;;;;;5038610;28;20035;-75
2022/04/04 00:40:23;;;;;;;6.50;2.30;;;3.70;99.90;;;;;;5056298;28;20072;-74
2022/04/04 00:42:49;;;;;;;9.68;2.90;;;3.80;99.90;;;;;;5038420;28;20056;-73
2022/04/04 00:45:15;;;;;;;6.38;2.70;;;3.80;99.90;;;;;;5056461;28;20052;-74
2022/04/04 00:47:40;;;;;;;11.60;2.97;;;3.80;99.90;;;;;;5055904;28;20486;-74
2022/04/04 00:50:06;;;;;;;7.10;2.90;;;3.70;99.90;;;;;;5056632;28;20029;-74
2022/04/04 00:52:32;;;;;;;8.07;2.60;;;3.70;99.90;;;;;;5056703;28;20025;-74
2022/04/04 00:54:58;;;;;;;6.63;2.50;;;3.70;99.90;;;;;;5038179;28;20071;-74
2022/04/04 00:57:24;;;;;;;6.30;2.20;;;3.70;99.90;;;;;;5056090;28;20075;-74
2022/04/04 00:59:50;;;;;;;6.20;2.85;;;3.70;99.90;;;;;;5055947;28;20032;-74
2022/04/04 01:02:16;;;;;;;9.65;2.67;;;3.60;99.90;;;;;;5038039;28;20017;-74
2022/04/04 01:04:42;;;;;;;4.53;2.35;;;3.60;99.90;;;;;;5038047;28;20052;-74
2022/04/04 01:07:08;;;;;;;5.47;1.92;;;3.60;99.90;;;;;;5056161;28;20041;-74
2022/04/04 01:09:33;;;;;;;6.97;2.30;;;3.60;99.90;;;;;;5037821;28;20064;-75
2022/04/04 01:12:13;;;;;;;7.95;2.22;;;3.60;99.90;;;;;;5055768;28;20036;-74
2022/04/04 01:14:41;;;;;;;5.78;2.33;;;3.70;99.90;;;;;;5055703;28;20520;-75
2022/04/04 01:17:08;;;;;;;5.13;2.45;;;3.60;99.90;;;;;;5037639;28;20385;-75
2022/04/04 01:19:34;;;;;;;4.55;2.20;;;3.70;99.90;;;;;;5037804;28;20119;-75
2022/04/04 01:22:00;;;;;;;9.05;2.60;;;3.70;99.90;;;;;;5055848;28;20032;-75
2022/04/04 03:38:50;;;;;;;4.55;2.40;;;4.60;99.90;;;;;;5053346;28;20402;-74
2022/04/04 03:41:15;;;;;;;6.30;2.40;;;4.50;99.90;;;;;;5034414;28;20057;-76
2022/04/04 03:43:41;;;;;;;5.65;2.85;;;4.60;99.90;;;;;;5053166;28;20386;-73
2022/04/04 03:46:07;;;;;;;7.18;2.90;;;4.70;99.90;;;;;;5053449;28;20025;-74
2022/04/04 03:48:32;;;;;;;4.50;1.80;;;4.70;99.90;;;;;;5035424;28;20028;-74
2022/04/04 03:50:58;;;;;;;5.63;2.20;;;4.70;99.90;;;;;;5053075;28;20036;-73
2022/04/04 03:53:27;;;;;;;7.18;1.17;;;4.60;99.90;;;;;;5053344;28;20459;-74
2022/04/04 03:55:53;;;;;;;6.68;2.08;;;4.70;99.90;;;;;;5053224;28;20021;-73
2022/04/04 03:58:19;;;;;;;6.25;2.70;;;4.70;99.90;;;;;;5053130;28;20032;-74
2022/04/04 04:00:44;;;;;;;7.78;3.28;;;4.80;99.90;;;;;;5034943;28;20029;-73
2022/04/04 04:03:10;;;;;;;7.07;2.42;;;4.70;99.90;;;;;;5034923;28;20037;-75
2022/04/04 04:05:36;;;;;;;6.35;2.10;;;4.70;99.90;;;;;;5053389;28;20120;-75
2022/04/04 04:08:03;;;;;;;6.55;2.33;;;4.70;99.90;;;;;;5037081;28;20367;-74
2022/04/04 04:10:28;;;;;;;5.32;1.83;;;4.80;99.90;;;;;;5038966;28;20100;-75
2022/04/04 04:12:55;;;;;;;3.95;2.05;;;4.80;99.90;;;;;;5057365;28;20061;-74
2022/04/04 04:15:23;;;;;;;7.65;2.40;;;4.80;99.90;;;;;;5056688;28;20017;-74
2022/04/04 04:17:52;;;;;;;4.68;2.33;;;4.80;99.90;;;;;;5056851;28;20025;-74
2022/04/04 04:20:22;;;;;;;4.55;2.40;;;4.90;99.90;;;;;;5056777;28;20029;-74
2022/04/04 04:22:54;;;;;;;3.72;2.13;;;4.90;99.90;;;;;;5056823;28;20021;-74
2022/04/04 04:25:21;;;;;;;7.25;2.10;;;4.90;99.90;;;;;;5056081;28;20041;-75
2022/04/04 04:27:46;;;;;;;5.38;2.15;;;4.80;99.90;;;;;;5056601;28;20029;-74
2022/04/04 04:30:16;;;;;;;3.65;2.15;;;4.80;99.90;;;;;;5056413;28;20020;-74
2022/04/04 04:32:44;;;;;;;5.72;1.83;;;4.80;99.90;;;;;;5056727;28;20067;-74
2022/04/04 04:35:11;;;;;;;3.57;1.57;;;4.90;99.90;;;;;;5056320;28;20035;-74
2022/04/04 04:37:37;;;;;;;8.25;2.42;;;4.90;99.90;;;;;;5038499;28;20332;-74
2022/04/04 04:40:04;;;;;;;5.15;2.55;;;4.90;99.90;;;;;;5056196;28;20048;-74
2022/04/04 04:42:29;;;;;;;3.92;1.45;;;4.90;99.90;;;;;;5056246;28;20551;-74
2022/04/04 04:44:55;;;;;;;6.95;2.10;;;5.00;99.90;;;;;;5056337;28;20021;-74
2022/04/04 04:47:21;;;;;;;4.13;2.13;;;5.00;99.90;;;;;;5038370;28;20386;-74
2022/04/04 04:49:48;;;;;;;10.02;2.67;;;5.00;99.90;;;;;;5056113;28;20079;-75
2022/04/04 04:52:14;;;;;;;8.10;2.17;;;5.00;99.90;;;;;;5056053;28;20057;-74
2022/04/04 04:54:40;;;;;;;7.35;1.75;;;5.00;99.90;;;;;;5056358;28;20025;-74
2022/04/04 04:57:05;;;;;;;5.30;2.58;;;5.00;99.90;;;;;;5056056;28;20021;-74
2022/04/04 04:59:31;;;;;;;4.13;2.10;;;5.10;99.90;;;;;;5038433;28;20099;-74
2022/04/04 05:01:56;;;;;;;7.00;2.13;;;5.10;99.90;;;;;;5055627;28;20043;-75
2022/04/04 05:04:22;;;;;;;6.05;2.33;;;5.10;99.90;;;;;;5037993;28;20032;-74
2022/04/04 05:06:49;;;;;;;4.85;1.48;;;5.10;99.90;;;;;;5055963;28;20033;-74
2022/04/04 05:09:16;;;;;;;8.27;2.22;;;5.20;99.90;;;;;;5056205;28;20105;-74
2022/04/04 05:11:42;;;;;;;4.95;1.10;;;5.10;99.90;;;;;;5055796;28;20045;-74
2022/04/04 05:14:09;;;;;;;4.30;1.63;;;5.10;99.90;;;;;;5055839;28;20056;-74
2022/04/04 05:16:35;;;;;;;7.00;2.65;;;5.20;99.90;;;;;;5055976;28;20013;-74
2022/04/04 05:19:00;;;;;;;3.90;1.80;;;5.20;99.90;;;;;;5055314;28;20037;-74
2022/04/04 05:21:26;;;;;;;9.23;2.00;;;5.10;99.90;;;;;;5055957;28;20156;-74
2022/04/04 05:23:51;;;;;;;3.63;1.48;;;5.20;99.90;;;;;;5037614;28;20473;-74
2022/04/04 05:26:17;;;;;;;17.58;3.33;;;5.20;99.90;;;;;;5055732;28;20100;-74
2022/04/04 05:28:43;;;;;;;2.75;1.38;;;5.20;99.90;;;;;;5037575;28;20028;-74
2022/04/04 05:31:08;;;;;;;5.55;2.13;;;5.10;99.90;;;;;;5055472;28;20013;-74
2022/04/04 05:33:34;;;;;;;7.22;2.90;;;5.10;99.90;;;;;;5055193;28;20086;-75
2022/04/04 05:36:00;;;;;;;17.92;4.30;;;5.20;99.90;;;;;;5055382;28;20025;-74
2022/04/04 05:38:26;;;;;;;13.23;3.78;;;5.20;99.90;;;;;;5055516;28;20052;-75
2022/04/04 05:40:51;;;;;;;11.05;3.63;;;5.30;99.90;;;;;;5055409;28;20054;-75
2022/04/04 05:43:18;;;;;;;9.82;3.20;;;5.30;99.90;;;;;;5055884;28;20512;-74
2022/04/04 05:45:44;;;;;;;7.18;2.65;;;5.30;99.90;;;;;;5055259;28;20056;-75
2022/04/04 05:48:10;;;;;;;6.18;2.90;;;5.30;99.90;;;;;;5055207;28;20025;-74
2022/04/04 05:50:35;;;;;;;5.85;1.42;;;5.30;99.90;;;;;;5055365;28;20021;-74
2022/04/04 05:53:01;;;;;;;8.30;3.55;;;5.40;99.90;;;;;;5055160;28;20017;-75
2022/04/04 05:55:27;;;;;;;9.07;2.72;;;5.40;99.90;;;;;;5055157;28;20025;-74
2022/04/04 05:57:53;;;;;;;8.88;2.90;;;5.40;99.90;;;;;;5054872;28;20079;-72
2022/04/04 06:00:18;;;;;;;5.63;3.08;;;5.40;99.90;;;;;;5055815;28;20025;-72
2022/04/04 06:02:46;;;;;;;8.90;3.30;;;5.50;99.90;;;;;;5055342;28;20471;-72
2022/04/04 06:05:12;;;;;;;9.43;3.75;;;5.50;99.90;;;;;;5055386;28;20078;-72
2022/04/04 06:07:39;;;;;;;7.85;3.08;;;5.50;99.90;;;;;;5054998;28;20104;-74
2022/04/04 06:10:07;;;;;;;6.55;2.65;;;5.50;99.90;;;;;;5055267;28;20017;-74
2022/04/04 06:12:36;;;;;;;6.38;3.08;;;5.50;99.90;;;;;;5054654;28;20087;-74
2022/04/04 06:15:02;;;;;;;10.35;2.80;;;5.60;99.90;;;;;;5054650;28;20013;-75
2022/04/04 06:17:28;;;;;;;9.93;3.05;;;5.60;99.90;;;;;;5054687;28;20075;-73
2022/04/04 06:19:55;;;;;;;14.13;3.30;;;5.60;99.90;;;;;;5054507;28;20032;-75
2022/04/04 06:22:22;;;;;;;8.20;3.53;;;5.70;99.90;;;;;;5036682;28;20108;-75
2022/04/04 06:24:49;;;;;;;9.30;3.60;;;5.70;99.90;;;;;;5036468;28;20379;-74
2022/04/04 06:27:18;;;;;;;7.75;4.15;;;5.80;99.90;;;;;;5054682;28;20108;-75
2022/04/04 06:29:45;;;;;;;10.90;3.20;;;5.80;99.90;;;;;;5054508;28;20025;-75
2022/04/04 06:32:10;;;;;;;7.57;3.22;;;5.80;99.90;;;;;;5053668;28;20032;-75
2022/04/04 06:34:37;;;;;;;7.05;2.63;;;5.90;99.90;;;;;;5054299;28;20090;-75
2022/04/04 06:39:47;;;;;;;9.27;3.60;;;6.00;99.90;;;;;;5641198;22;20060;-74
2022/04/04 06:42:14;;;;;;;8.85;3.60;;;9.90;99.90;;;;;;5055655;28;20021;-73
2022/04/04 06:44:39;;;;;;;7.55;3.53;;;9.50;99.90;;;;;;5056166;28;20401;-73
2022/04/04 06:47:05;;;;;;;9.15;4.30;;;6.10;99.90;;;;;;5055349;28;20017;-73
2022/04/04 06:49:31;;;;;;;8.35;3.15;;;6.00;99.90;;;;;;5055389;28;20178;-71
2022/04/04 06:51:59;;;;;;;8.80;3.38;;;6.00;99.90;;;;;;5055195;28;20472;-71
2022/04/04 06:54:27;;;;;;;6.32;2.70;;;6.00;99.90;;;;;;5037177;28;20460;-72
2022/04/04 06:56:53;;;;;;;12.50;3.92;;;6.00;99.90;;;;;;5037150;28;20048;-72
2022/04/04 06:59:19;;;;;;;9.43;3.90;;;5.90;99.90;;;;;;5055137;28;20025;-72
2022/04/04 07:01:46;;;;;;;5.80;2.20;;;5.80;99.90;;;;;;5055051;28;20027;-73
2022/04/04 07:04:12;;;;;;;8.88;2.95;;;5.80;99.90;;;;;;5037161;28;20089;-72
2022/04/04 07:06:37;;;;;;;6.95;2.25;;;5.90;99.90;;;;;;5055477;28;20064;-72
2022/04/04 07:09:03;;;;;;;8.75;2.95;;;5.80;99.90;;;;;;5055638;28;20061;-72
2022/04/04 07:11:29;;;;;;;6.80;3.10;;;5.90;99.90;;;;;;5055087;28;20108;-72
2022/04/04 07:13:55;;;;;;;8.10;1.83;;;5.90;99.90;;;;;;5054994;28;20025;-72
2022/04/04 07:16:21;;;;;;;5.50;2.13;;;5.90;99.90;;;;;;5055288;28;20048;-72
2022/04/04 07:18:48;;;;;;;8.23;2.78;;;5.90;99.90;;;;;;5036696;28;20417;-72
2022/04/04 07:21:15;;;;;;;5.95;1.90;;;5.90;99.90;;;;;;5055392;28;20033;-71
2022/04/04 07:23:41;;;;;;;9.25;3.35;;;5.80;99.90;;;;;;5037500;28;20036;-71
2022/04/04 07:26:07;;;;;;;8.82;3.45;;;5.80;99.90;;;;;;5055009;28;20386;-71
2022/04/04 07:28:33;;;;;;;8.25;3.42;;;5.70;99.90;;;;;;5054940;28;20485;-71
2022/04/04 07:31:00;;;;;;;6.30;2.92;;;5.70;99.90;;;;;;5055480;28;20532;-71
2022/04/04 07:33:26;;;;;;;13.25;2.70;;;5.70;99.90;;;;;;5055397;28;20023;-71
2022/04/04 07:35:52;;;;;;;7.25;2.97;;;5.50;99.90;;;;;;5055681;28;20105;-71
2022/04/04 07:38:17;;;;;;;9.52;3.63;;;5.50;99.90;;;;;;5055774;28;20060;-71
2022/04/04 07:40:43;;;;;;;8.45;3.67;;;5.50;99.90;;;;;;5054967;28;20041;-72
2022/04/04 07:43:09;;;;;;;7.32;2.60;;;5.50;99.90;;;;;;5055207;28;20059;-72
2022/04/04 07:45:34;;;;;;;10.82;4.85;;;5.50;99.90;;;;;;5055051;28;20074;-72
2022/04/04 07:48:01;;;;;;;13.32;4.15;;;5.50;99.90;;;;;;5036720;28;20115;-72
2022/04/04 07:50:27;;;;;;;8.20;4.03;;;5.50;99.90;;;;;;5054886;28;20021;-72
2022/04/04 07:52:53;;;;;;;8.95;3.80;;;5.50;99.90;;;;;;5037187;28;20047;-72
2022/04/04 07:55:19;;;;;;;8.25;3.47;;;5.50;99.90;;;;;;5054487;28;20025;-72
2022/04/04 07:57:44;;;;;;;8.80;3.97;;;5.40;99.90;;;;;;5054319;28;20025;-72
2022/04/04 08:00:14;;;;;;;7.80;3.85;;;5.40;99.90;;;;;;5054123;28;20025;-72
2022/04/04 08:02:40;;;;;;;13.57;3.50;;;5.40;99.90;;;;;;5054582;28;20059;-72
2022/04/04 08:05:08;;;;;;;6.65;3.75;;;5.30;99.90;;;;;;5054264;28;20501;-71
2022/04/04 08:07:34;;;;;;;13.95;4.97;;;5.30;99.90;;;;;;5036435;28;20557;-72
2022/04/04 08:10:00;;;;;;;15.10;4.38;;;5.30;99.90;;;;;;5054272;28;20065;-72
2022/04/04 08:12:27;;;;;;;15.30;5.10;;;5.30;99.90;;;;;;5036769;28;20032;-72
2022/04/04 08:14:53;;;;;;;11.93;4.97;;;5.30;99.90;;;;;;5054863;28;20100;-73
2022/04/04 08:17:18;;;;;;;5.60;3.33;;;5.40;99.90;;;;;;5054489;28;20074;-73
2022/04/04 08:19:44;;;;;;;13.00;5.20;;;5.40;99.90;;;;;;5054739;28;20032;-72
2022/04/04 08:22:09;;;;;;;8.30;4.25;;;5.40;99.90;;;;;;5054077;28;20390;-72
2022/04/04 08:24:35;;;;;;;13.82;3.00;;;5.40;99.90;;;;;;5053878;28;20381;-73
2022/04/04 08:27:01;;;;;;;12.40;3.33;;;5.50;99.90;;;;;;5054435;28;20032;-72
2022/04/04 08:29:26;;;;;;;5.72;3.03;;;5.50;99.90;;;;;;5036098;28;20021;-73
2022/04/04 08:31:52;;;;;;;6.82;3.00;;;5.50;99.90;;;;;;5054061;28;20040;-73
2022/04/04 08:34:18;;;;;;;8.05;2.85;;;5.50;99.90;;;;;;5035997;28;20509;-71
2022/04/04 08:36:43;;;;;;;11.95;3.05;;;5.60;99.90;;;;;;5054141;28;20071;-72
2022/04/04 08:39:09;;;;;;;5.32;2.42;;;5.60;99.90;;;;;;5054080;28;20037;-72
2022/04/04 08:41:36;;;;;;;5.97;2.05;;;5.60;99.90;;;;;;5035927;28;20048;-72
2022/04/04 08:44:03;;;;;;;10.35;3.15;;;5.60;99.90;;;;;;5054273;28;20452;-72
2022/04/04 08:46:30;;;;;;;6.00;1.77;;;5.60;99.90;;;;;;5036099;28;20021;-72
2022/04/04 08:48:58;;;;;;;2.88;1.02;;;5.60;99.90;;;;;;5037406;28;20024;-72
2022/04/04 08:51:28;;;;;;;13.00;1.63;;;5.50;99.90;;;;;;5036165;28;20013;-72
2022/04/04 08:53:54;;;;;;;5.22;0.77;;;5.50;99.90;;;;;;5054643;28;20020;-72
2022/04/04 08:56:23;;;;;;;9.45;1.70;;;5.60;99.90;;;;;;5039729;28;20017;-72
2022/04/04 08:58:50;;;;;;;1.60;0.88;;;5.40;99.90;;;;;;5057598;28;20052;-72
2022/04/04 09:01:16;;;;;;;2.80;1.23;;;5.50;99.90;;;;;;5057331;28;20025;-72
2022/04/04 09:03:41;;;;;;;4.10;1.05;;;5.40;99.90;;;;;;5039928;28;20390;-72
2022/04/04 09:06:07;;;;;;;7.57;2.10;;;5.40;99.90;;;;;;5057616;28;20025;-72
2022/04/04 09:08:44;;;;;;;7.30;2.72;;;5.40;99.90;;;;;;5039702;28;20083;-72
2022/04/04 09:11:11;;;;;;;5.60;1.48;;;5.40;99.90;;;;;;5039472;28;20037;-72
2022/04/04 09:13:37;;;;;;;6.93;2.00;;;5.40;99.90;;;;;;5058031;28;20021;-72
2022/04/04 09:16:04;;;;;;;3.53;0.93;;;5.40;99.90;;;;;;5057607;28;20497;-72
2022/04/04 09:18:41;;;;;;;5.85;1.88;;;5.40;99.90;;;;;;5057211;28;20021;-72
2022/04/04 09:21:17;;;;;;;6.75;2.03;;;5.50;99.90;;;;;;5057142;28;20035;-73
2022/04/04 09:23:45;;;;;;;4.75;1.58;;;5.50;99.90;;;;;;5057082;28;20036;-72
2022/04/04 09:26:42;;;;;;;4.47;1.48;;;5.50;99.90;;;;;;5057341;28;20478;-72
2022/04/04 09:29:22;;;;;;;7.93;2.13;;;5.50;99.90;;;;;;5057755;28;20021;-72
2022/04/04 09:32:12;;;;;;;5.65;0.80;;;5.50;99.90;;;;;;5056809;28;20025;-72
2022/04/04 09:35:02;;;;;;;8.45;1.25;;;5.60;99.90;;;;;;5038858;28;20378;-72
2022/04/04 09:37:32;;;;;;;7.40;2.10;;;5.60;99.90;;;;;;5056420;28;20382;-71
2022/04/04 09:40:16;;;;;;;4.28;0.98;;;5.70;99.90;;;;;;5056673;28;20029;-71
2022/04/04 09:42:53;;;;;;;6.78;1.60;;;5.60;99.90;;;;;;5038638;28;20025;-72
2022/04/04 09:45:24;;;;;;;6.18;2.30;;;5.60;99.90;;;;;;5038742;28;20032;-71
2022/04/04 09:48:09;;;;;;;7.45;3.50;;;5.60;99.90;;;;;;5056090;28;20037;-72
2022/04/04 09:50:45;;;;;;;3.17;1.67;;;5.70;99.90;;;;;;5038097;28;20025;-71
2022/04/04 09:53:22;;;;;;;7.78;2.63;;;5.60;99.90;;;;;;5056102;28;20111;-72
2022/04/04 09:55:52;;;;;;;4.53;2.13;;;5.80;99.90;;;;;;5057030;28;20017;-72
2022/04/04 09:58:20;;;;;;;10.60;2.30;;;5.70;99.90;;;;;;5056140;28;20029;-71
2022/04/04 10:00:49;;;;;;;9.02;2.85;;;5.70;99.90;;;;;;5038249;28;20083;-71
2022/04/04 10:03:16;;;;;;;8.38;2.60;;;5.70;99.90;;;;;;5038309;28;20021;-72
2022/04/04 10:05:44;;;;;;;4.45;2.50;;;5.70;99.90;;;;;;5055610;28;20029;-71
2022/04/04 10:08:14;;;;;;;4.63;1.70;;;5.70;99.90;;;;;;5055918;28;20056;-71
2022/04/04 10:10:41;;;;;;;5.43;1.85;;;5.80;99.90;;;;;;5055992;28;20017;-71
2022/04/04 10:13:07;;;;;;;3.60;2.00;;;5.80;99.90;;;;;;5055741;28;20374;-71
2022/04/04 10:15:36;;;;;;;3.85;1.77;;;5.90;99.90;;;;;;5055677;28;20074;-72
2022/04/04 10:18:03;;;;;;;4.03;1.77;;;6.00;99.90;;;;;;5055726;28;20386;-71
2022/04/04 10:20:29;;;;;;;8.07;1.42;;;6.00;99.90;;;;;;5037610;28;20025;-71
2022/04/04 10:22:56;;;;;;;7.00;1.70;;;6.00;99.90;;;;;;5055738;28;20032;-72
2022/04/04 10:25:25;;;;;;;3.70;0.85;;;6.10;99.90;;;;;;5055599;28;20036;-72
2022/04/04 10:27:52;;;;;;;;;;;6.00;99.90;;;;;;5056360;28;20385;-72
2022/04/04 10:30:18;;;;;;;3.05;0.45;;;6.10;99.90;;;;;;5037542;28;19939;-72
2022/04/04 10:32:50;;;;;;;2.08;0.73;;;6.10;99.90;;;;;;5055816;28;20025;-72
2022/04/04 10:35:23;;;;;;;6.45;1.52;;;6.10;99.90;;;;;;5055473;28;20027;-71
2022/04/04 10:37:49;;;;;;;4.20;1.48;;;6.10;99.90;;;;;;5056167;28;20473;-71
2022/04/04 10:40:27;;;;;;;5.00;2.50;;;6.20;99.90;;;;;;5037118;28;20048;-71
2022/04/04 10:43:12;;;;;;;4.50;2.13;;;6.10;99.90;;;;;;5055880;28;20040;-71
2022/04/04 10:45:59;;;;;;;5.90;3.08;;;6.10;99.90;;;;;;5056573;28;20021;-71
2022/04/04 10:48:49;;;;;;;4.80;1.77;;;6.10;99.90;;;;;;5056989;28;20036;-71
2022/04/04 10:51:20;;;;;;;4.50;2.58;;;6.10;99.90;;;;;;5039528;28;20021;-72
2022/04/04 10:54:10;;;;;;;4.25;2.83;;;6.10;99.90;;;;;;5038282;28;20032;-72
2022/04/04 10:56:46;;;;;;;7.43;2.25;;;6.00;99.90;;;;;;5056628;28;20025;-72
2022/04/04 10:59:23;;;;;;;5.65;3.13;;;6.00;99.90;;;;;;5038364;28;20016;-71
2022/04/04 11:01:58;;;;;;;7.43;2.55;;;6.00;99.90;;;;;;5056170;28;20033;-71
2022/04/04 11:04:36;;;;;;;5.53;2.90;;;6.00;99.90;;;;;;5056507;28;20021;-72
2022/04/04 11:09:55;;;;;;;3.95;2.28;;;6.00;99.90;;;;;;5055848;28;20036;-71
2022/04/04 11:12:24;;;;;;;4.97;2.25;;;6.10;99.90;;;;;;5055652;28;20025;-71
2022/04/04 11:14:57;;;;;;;3.67;2.20;;;6.10;99.90;;;;;;5037688;28;20028;-71
2022/04/04 11:17:32;;;;;;;3.20;1.95;;;6.20;99.90;;;;;;5055065;28;20017;-72
2022/04/04 11:20:21;;;;;;;2.75;1.88;;;6.20;99.90;;;;;;5037225;28;20025;-72
2022/04/04 11:22:51;;;;;;;1.13;0.70;;;6.20;99.90;;;;;;5037634;28;20036;-71
2022/04/04 11:25:22;;;;;;;2.40;1.38;;;6.20;99.90;;;;;;5055538;28;20371;-71
2022/04/04 11:27:48;;;;;;;2.65;1.60;;;6.20;99.90;;;;;;5055084;28;20470;-72
2022/04/04 11:30:16;;;;;;;1.75;1.35;;;6.30;99.90;;;;;;5055078;28;20028;-71
2022/04/04 11:32:43;;;;;;;3.97;1.13;;;6.30;99.90;;;;;;5055245;28;20010;-71
2022/04/04 11:35:25;;;;;;;0.95;0.47;;;6.40;99.90;;;;;;5054825;28;20267;-71
2022/04/04 11:37:54;;;;;;;2.78;0.85;;;6.40;99.90;;;;;;5037143;28;20394;-71
2022/04/04 11:40:26;;;;;;;3.78;0.70;;;6.40;99.90;;;;;;5036775;28;20043;-71
2022/04/04 11:42:53;;;;;;;1.38;0.35;;;6.40;99.90;;;;;;5037324;28;20021;-71
2022/04/04 11:45:27;;;;;;;1.58;1.00;;;6.40;99.90;;;;;;5055006;28;20577;-71
2022/04/04 11:48:02;;;;;;;3.50;0.90;;;6.50;99.90;;;;;;5037176;28;20043;-72
2022/04/04 11:50:30;;;;;;;1.52;0.70;;;6.60;99.90;;;;;;5055189;28;20100;-72
2022/04/04 11:53:10;;;;;;;1.85;0.57;;;6.60;99.90;;;;;;5055149;28;20112;-72
2022/04/04 11:55:39;;;;;;;3.17;0.95;;;6.60;99.90;;;;;;5055125;28;20066;-72
2022/04/04 11:58:15;;;;;;;;;;;6.60;99.90;;;;;;5038010;28;20029;-72
2022/04/04 12:00:54;;;;;;;1.13;0.70;;;6.70;99.90;;;;;;5055949;28;19911;-72
2022/04/04 12:03:20;;;;;;;0.70;0.43;;;6.70;99.90;;;;;;5038013;28;20116;-72
2022/04/04 12:05:48;;;;;;;1.25;0.52;;;6.80;99.90;;;;;;5055427;28;20386;-72
2022/04/04 12:08:15;;;;;;;0.52;0.40;;;6.80;99.90;;;;;;5055233;28;20462;-71
2022/04/04 12:10:40;;;;;;;3.03;0.85;;;6.90;99.90;;;;;;5055440;28;20415;-72
2022/04/04 12:13:10;;;;;;;1.02;0.68;;;6.90;99.90;;;;;;5055367;28;20017;-72
2022/04/04 12:15:40;;;;;;;1.83;0.50;;;6.80;99.90;;;;;;5054735;28;20017;-71
2022/04/04 12:18:07;;;;;;;2.83;0.68;;;6.80;99.90;;;;;;5055441;28;20432;-72
2022/04/04 12:20:44;;;;;;;2.08;0.73;;;6.80;99.90;;;;;;5036889;28;20021;-72
2022/04/04 12:25:58;;;;;;;2.08;0.40;;;6.90;99.90;;;;;;5055732;28;20028;-72
2022/04/04 12:28:29;;;;;;;2.10;0.35;;;7.00;99.90;;;;;;5056369;28;20040;-72
2022/04/04 12:31:09;;;;;;;0.30;0.20;;;7.00;99.90;;;;;;5058441;28;20028;-72
2022/04/04 12:33:34;;;;;;;2.03;0.47;;;7.10;99.90;;;;;;5040918;28;20111;-72
2022/04/04 12:36:00;;;;;;;2.58;0.20;;;7.10;99.90;;;;;;5058271;28;20053;-72
2022/04/04 12:38:30;;;;;;;1.92;0.22;;;7.10;99.90;;;;;;5040929;28;20033;-72
2022/04/04 12:41:17;;;;;;;0.50;0.13;;;7.50;99.90;;;;;;5058349;28;20040;-71
2022/04/04 12:43:45;;;;;;;0.20;0.10;;;7.30;99.90;;;;;;5059014;28;20083;-71
2022/04/04 12:46:27;;;;;;;1.85;0.13;;;7.30;99.90;;;;;;5058414;28;20025;-72
2022/04/04 12:48:55;;;;;;;0.60;0.10;;;7.30;99.90;;;;;;5058314;28;20040;-72
2022/04/04 12:51:40;;;;;;;0.82;0.20;;;7.40;99.90;;;;;;5057974;28;20052;-72
2022/04/04 12:54:05;;;;;;;0.95;0.47;;;7.40;99.90;;;;;;5058504;28;20021;-73
2022/04/04 12:56:47;;;;;;;4.97;0.15;;;7.50;99.90;;;;;;5040517;28;20404;-72
2022/04/04 12:59:12;;;;;;;0.75;0.50;;;7.50;99.90;;;;;;5058047;28;20025;-73
2022/04/04 13:01:38;;;;;;;1.48;0.30;;;7.50;99.90;;;;;;5057948;28;20098;-73
2022/04/04 13:04:21;;;;;;;0.32;0.20;;;7.50;99.90;;;;;;5058090;28;20029;-72
2022/04/04 13:06:50;;;;;;;0.52;0.30;;;7.50;99.90;;;;;;5039673;28;20543;-71
2022/04/04 13:09:26;;;;;;;1.42;0.40;;;7.60;99.90;;;;;;5057644;28;20045;-71
2022/04/04 13:11:53;;;;;;;0.80;0.20;;;7.70;99.90;;;;;;5039596;28;20045;-71
2022/04/04 13:14:21;;;;;;;1.50;0.28;;;7.70;99.90;;;;;;5057783;28;20025;-72
2022/04/04 13:16:54;;;;;;;1.23;0.28;;;7.70;99.90;;;;;;5058184;28;20020;-72
2022/04/04 13:19:21;;;;;;;0.15;0.13;;;7.70;99.90;;;;;;5057950;28;20029;-72
2022/04/04 13:21:52;;;;;;;0.40;0.20;;;7.80;99.90;;;;;;5057902;28;20486;-72
2022/04/04 13:24:18;;;;;;;0.20;0.20;;;7.80;99.90;;;;;;5058257;28;20102;-72
2022/04/04 13:26:48;;;;;;;0.95;0.13;;;7.80;99.90;;;;;;5057852;28;20428;-71
2022/04/04 13:29:15;;;;;;;2.08;0.15;;;7.70;99.90;;;;;;5039952;28;20108;-73
2022/04/04 13:31:42;;;;;;;0.38;0.20;;;7.70;99.90;;;;;;5057459;28;20043;-73
2022/04/04 13:34:08;;;;;;;0.65;0.30;;;7.80;99.90;;;;;;5056913;28;20100;-71
2022/04/04 13:36:34;;;;;;;0.77;0.00;;;7.80;99.90;;;;;;5057071;28;20032;-71
2022/04/04 13:39:04;;;;;;;0.38;0.10;;;7.80;99.90;;;;;;5058265;28;20091;-72
2022/04/04 13:41:37;;;;;;;0.10;0.10;;;9.80;99.90;;;;;;5057426;28;20394;-73
2022/04/04 13:44:06;;;;;;;0.40;0.28;;;7.90;99.90;;;;;;5040195;28;20022;-73
2022/04/04 13:46:32;;;;;;;0.95;0.20;;;7.90;99.90;;;;;;5057545;28;20474;-73
2022/04/04 13:48:59;;;;;;;1.38;0.32;;;7.90;99.90;;;;;;5057312;28;20044;-72
2022/04/04 13:51:27;;;;;;;0.55;0.13;;;7.90;99.90;;;;;;5057816;28;20078;-73
2022/04/04 13:53:55;;;;;;;0.80;0.28;;;8.00;99.90;;;;;;5038575;28;20071;-73
2022/04/04 13:56:23;;;;;;;0.73;0.13;;;8.00;99.90;;;;;;5039077;28;20021;-74
2022/04/04 13:58:50;;;;;;;2.25;0.20;;;8.00;99.90;;;;;;5057012;28;20021;-74
2022/04/04 14:01:23;;;;;;;3.55;0.47;;;8.00;99.90;;;;;;5038900;28;20020;-74
2022/04/04 14:03:51;;;;;;;0.85;0.25;;;8.00;99.90;;;;;;5039320;28;20025;-74
2022/04/04 14:06:20;;;;;;;0.93;0.40;;;8.00;99.90;;;;;;5056509;28;20109;-74
2022/04/04 14:08:46;;;;;;;0.90;0.38;;;8.40;99.90;;;;;;5057547;28;20028;-74
2022/04/04 14:11:14;;;;;;;0.60;0.35;;;8.00;99.90;;;;;;5056826;28;20028;-74
2022/04/04 14:13:57;;;;;;;5.00;0.70;;;8.10;99.90;;;;;;5057328;28;20032;-74
2022/04/04 14:16:27;;;;;;;2.42;1.00;;;8.10;99.90;;;;;;5038952;28;20025;-74
2022/04/04 14:18:53;;;;;;;1.80;0.82;;;8.00;99.90;;;;;;5057053;28;20029;-74
2022/04/04 14:21:19;;;;;;;1.80;1.00;;;8.10;99.90;;;;;;5056782;28;20036;-74
2022/04/04 14:23:46;;;;;;;2.25;0.80;;;8.10;99.90;;;;;;5056910;28;20021;-74
2022/04/04 14:26:12;;;;;;;3.75;1.63;;;8.10;99.90;;;;;;5056986;28;20104;-74
2022/04/04 14:28:39;;;;;;;4.85;2.45;;;8.10;99.90;;;;;;5039351;28;20025;-74
2022/04/04 14:31:05;;;;;;;5.28;2.53;;;8.10;99.90;;;;;;5056813;28;20083;-73
2022/04/04 14:33:31;;;;;;;5.72;3.13;;;8.10;99.90;;;;;;5056781;28;20013;-74
2022/04/04 14:35:58;;;;;;;10.98;4.25;;;8.10;99.90;;;;;;5056671;28;20029;-74
2022/04/04 14:38:24;;;;;;;6.47;3.63;;;8.10;99.90;;;;;;5057149;28;20374;-74
2022/04/04 14:40:50;;;;;;;5.95;3.38;;;8.20;99.90;;;;;;5056047;28;20025;-74
2022/04/04 14:43:16;;;;;;;5.18;3.50;;;8.20;99.90;;;;;;5056166;28;20025;-74
2022/04/04 14:45:41;;;;;;;9.10;3.88;;;8.20;99.90;;;;;;5056821;28;20063;-74
2022/04/04 14:48:07;;;;;;;8.13;4.50;;;8.30;99.90;;;;;;5056236;28;20379;-74
2022/04/04 14:50:39;;;;;;;12.70;4.85;;;8.30;99.90;;;;;;5056625;28;20017;-73
2022/04/04 14:53:06;;;;;;;14.63;5.18;;;8.30;99.90;;;;;;5056042;28;20021;-72
2022/04/04 14:55:32;;;;;;;9.73;5.32;;;8.40;99.90;;;;;;5038735;28;20032;-72
2022/04/04 14:57:58;;;;;;;16.35;5.28;;;8.40;99.90;;;;;;5055981;28;20032;-72
2022/04/04 15:00:24;;;;;;;14.68;5.85;;;8.50;99.90;;;;;;5056567;28;20029;-72
2022/04/04 15:02:49;;;;;;;16.83;6.18;;;8.40;99.90;;;;;;5056940;28;20120;-72
2022/04/04 15:05:15;;;;;;;16.45;7.63;;;8.50;99.90;;;;;;5057248;28;20017;-72
2022/04/04 15:07:41;;;;;;;14.82;7.28;;;8.50;99.90;;;;;;5040106;28;20366;-72
2022/04/04 15:10:08;;;;;;;20.48;6.22;;;8.50;99.90;;;;;;5056813;28;20101;-72
2022/04/04 15:12:34;;;;;;;22.08;6.38;;;8.50;99.90;;;;;;5056203;28;20071;-72
2022/04/04 15:15:02;;;;;;;13.90;6.72;;;8.50;99.90;;;;;;5056096;28;20029;-72
2022/04/04 15:17:28;;;;;;;15.50;6.07;;;8.50;99.90;;;;;;5056442;28;20071;-72
2022/04/04 15:19:54;;;;;;;12.27;6.45;;;8.60;99.90;;;;;;5056619;28;20271;-72
2022/04/04 15:22:21;;;;;;;21.52;6.60;;;8.60;99.90;;;;;;5039265;28;20092;-73
2022/04/04 15:24:47;;;;;;;16.73;5.57;;;8.70;99.90;;;;;;5057584;28;20363;-73